Time;durP1;ratioP1;P1;durP2;ratioP2;P2;SDS_P1;SDS_P2;PMS_P1;PMS_P2;Temp;Humidity;BMP_temperature;BMP_pressure;BME280_temperature;BME280_humidity;BME280_pressure;Samples;Min_cycle;Max_cycle;Signal;HPM_P1;HPM_P2
2021/08/17 00:01:09;;;;;;;12.40;10.40;;;;;;;23.73;51.29;99896.41;1695275;82;21540;-59
2021/08/17 00:03:36;;;;;;;20.08;10.43;;;;;;;23.72;51.30;99897.52;1691609;83;21571;-58
2021/08/17 00:06:05;;;;;;;16.30;9.83;;;;;;;23.70;51.40;99897.81;1696981;83;20978;-58
2021/08/17 00:08:33;;;;;;;14.40;10.82;;;;;;;23.66;51.53;99894.05;1698351;84;22157;-58
2021/08/17 00:11:01;;;;;;;12.82;11.43;;;;;;;23.63;51.68;99896.52;1680576;83;21039;-58
2021/08/17 00:13:29;;;;;;;12.75;10.70;;;;;;;23.59;51.81;99888.67;1671172;84;21595;-58
2021/08/17 00:15:57;;;;;;;11.73;10.53;;;;;;;23.54;51.96;99899.59;1665509;84;21255;-58
2021/08/17 00:18:25;;;;;;;13.93;11.28;;;;;;;23.55;52.00;99887.63;1683058;84;21646;-58
2021/08/17 00:20:51;;;;;;;11.65;10.43;;;;;;;23.54;52.09;99898.23;1681399;84;20969;-59
2021/08/17 00:23:18;;;;;;;11.63;10.48;;;;;;;23.50;52.21;99892.55;1663581;85;21031;-60
2021/08/17 00:25:45;;;;;;;11.50;10.30;;;;;;;23.48;52.24;99892.83;1645822;85;21134;-58
2021/08/17 00:28:13;;;;;;;12.73;10.48;;;;;;;23.46;52.35;99901.82;1647878;86;21544;-58
2021/08/17 00:30:41;;;;;;;12.50;11.25;;;;;;;23.43;52.48;99887.45;1638082;87;21126;-59
2021/08/17 00:33:07;;;;;;;14.43;11.35;;;;;;;23.39;52.55;99890.45;1643071;85;21056;-59
2021/08/17 00:35:36;;;;;;;12.60;11.25;;;;;;;23.39;52.65;99891.01;1633721;86;21040;-57
2021/08/17 00:38:04;;;;;;;13.30;11.90;;;;;;;23.37;52.68;99887.20;1632065;86;21056;-58
2021/08/17 00:40:33;;;;;;;11.85;10.72;;;;;;;23.35;52.83;99891.31;1632509;86;21021;-58
2021/08/17 00:43:00;;;;;;;12.65;11.30;;;;;;;23.30;52.97;99895.70;1627249;86;21085;-59
2021/08/17 00:45:28;;;;;;;11.90;10.70;;;;;;;23.30;52.99;99897.59;1644441;85;21573;-59
2021/08/17 00:47:57;;;;;;;14.70;11.38;;;;;;;23.31;53.11;99888.35;1646761;85;21081;-59
2021/08/17 00:50:32;;;;;;;15.70;12.00;;;;;;;23.29;53.06;99888.63;1643775;85;21533;-60
2021/08/17 00:53:00;;;;;;;12.33;11.12;;;;;;;23.27;53.20;99893.55;1629656;87;21035;-59
2021/08/17 00:55:34;;;;;;;17.90;12.28;;;;;;;23.26;53.24;99889.74;1639488;85;21146;-59
2021/08/17 00:58:00;;;;;;;12.20;11.00;;;;;;;23.24;53.31;99882.42;1617634;87;21024;-59
2021/08/17 01:00:28;;;;;;;11.55;10.50;;;;;;;23.24;53.35;99887.86;1605068;87;21070;-59
2021/08/17 01:02:54;;;;;;;12.35;11.15;;;;;;;23.24;53.36;99891.38;1642620;85;21078;-58
2021/08/17 01:05:26;;;;;;;17.77;11.15;;;;;;;23.22;53.43;99890.05;1643847;85;21010;-58
2021/08/17 01:07:52;;;;;;;14.65;11.05;;;;;;;23.21;53.45;99894.69;1628502;85;21006;-57
2021/08/17 01:10:19;;;;;;;12.88;11.53;;;;;;;23.20;53.57;99892.24;1628139;85;21069;-57
2021/08/17 01:12:45;;;;;;;12.50;11.15;;;;;;;23.17;53.61;99890.91;1661959;84;21465;-58
2021/08/17 01:15:14;;;;;;;12.75;11.33;;;;;;;23.16;53.63;99889.28;1681404;84;21067;-58
2021/08/17 01:17:44;;;;;;;14.10;11.48;;;;;;;23.17;53.67;99894.99;1640539;86;21014;-56
2021/08/17 01:20:15;;;;;;;11.85;10.68;;;;;;;23.15;53.67;99895.83;1646462;85;21577;-56
2021/08/17 01:22:45;;;;;;;19.00;11.93;;;;;;;23.16;53.78;99893.91;1658617;85;21055;-59
2021/08/17 01:25:12;;;;;;;12.43;11.25;;;;;;;23.13;53.79;99896.10;1650037;86;21582;-58
2021/08/17 01:27:41;;;;;;;13.22;12.03;;;;;;;23.09;53.96;99898.30;1664349;86;21010;-59
2021/08/17 01:30:10;;;;;;;13.38;12.13;;;;;;;23.06;54.02;99905.12;1671023;85;21004;-58
2021/08/17 01:32:36;;;;;;;16.37;12.37;;;;;;;23.02;54.13;99898.59;1665439;85;21078;-59
2021/08/17 01:35:04;;;;;;;12.82;11.57;;;;;;;23.01;54.20;99897.52;1639399;86;21027;-59
2021/08/17 01:37:31;;;;;;;12.58;11.38;;;;;;;22.98;54.37;99909.77;1641223;87;21141;-59
2021/08/17 01:40:03;;;;;;;16.73;12.05;;;;;;;22.97;54.47;99904.61;1630386;87;21009;-58
2021/08/17 01:42:30;;;;;;;14.38;12.88;;;;;;;22.96;54.42;99905.13;1632216;87;21052;-60
2021/08/17 01:44:59;;;;;;;13.78;12.45;;;;;;;22.97;54.49;99905.97;1620054;87;21118;-59
2021/08/17 01:47:28;;;;;;;16.80;12.88;;;;;;;22.93;54.70;99904.36;1635861;86;21194;-60
2021/08/17 01:49:56;;;;;;;15.48;12.98;;;;;;;22.92;54.70;99900.00;1629545;87;21051;-58
2021/08/17 01:52:22;;;;;;;15.63;13.25;;;;;;;22.91;54.92;99898.39;1630939;86;21014;-58
2021/08/17 01:54:48;;;;;;;17.70;12.82;;;;;;;22.89;54.84;99897.31;1637200;86;21083;-57
2021/08/17 01:57:14;;;;;;;12.47;11.18;;;;;;;22.89;54.89;99895.14;1686584;83;21059;-57
2021/08/17 01:59:41;;;;;;;14.15;12.45;;;;;;;22.89;55.00;99899.22;1695004;83;21105;-57
2021/08/17 02:02:08;;;;;;;15.25;12.37;;;;;;;22.87;55.19;99898.14;1693330;83;20994;-56
2021/08/17 02:04:36;;;;;;;13.80;12.45;;;;;;;22.85;55.23;99895.42;1690985;83;21051;-57
2021/08/17 02:07:04;;;;;;;14.98;13.48;;;;;;;22.82;55.38;99894.09;1686255;83;21049;-57
2021/08/17 02:09:31;;;;;;;15.93;13.65;;;;;;;22.82;55.48;99890.56;1688719;83;21046;-56
2021/08/17 02:11:57;;;;;;;18.30;13.05;;;;;;;22.77;55.62;99891.39;1685362;83;21019;-57
2021/08/17 02:14:23;;;;;;;15.15;13.53;;;;;;;22.72;55.68;99886.00;1654943;85;21509;-57
2021/08/17 02:16:52;;;;;;;13.53;12.20;;;;;;;22.69;55.75;99887.36;1659468;85;21025;-57
2021/08/17 02:19:19;;;;;;;14.18;12.85;;;;;;;22.69;55.75;99878.41;1653268;85;21002;-58
2021/08/17 02:21:47;;;;;;;12.50;11.20;;;;;;;22.69;55.73;99881.92;1651918;85;21059;-58
2021/08/17 02:24:15;;;;;;;14.85;13.58;;;;;;;22.70;55.72;99882.20;1659819;85;21026;-57
2021/08/17 02:26:41;;;;;;;17.02;13.75;;;;;;;22.69;55.69;99886.55;1674331;85;21066;-57
2021/08/17 02:29:08;;;;;;;16.17;14.23;;;;;;;22.68;55.76;99881.67;1651240;85;21081;-57
2021/08/17 02:31:34;;;;;;;15.60;14.15;;;;;;;22.63;55.85;99883.05;1656391;85;21003;-57
2021/08/17 02:34:01;;;;;;;15.93;12.47;;;;;;;22.64;55.87;99872.47;1651611;85;21022;-56
2021/08/17 02:36:28;;;;;;;14.35;12.58;;;;;;;22.69;55.68;99875.69;1660275;85;21041;-57
2021/08/17 02:38:54;;;;;;;15.08;13.03;;;;;;;22.68;55.62;99872.17;1673770;85;21010;-57
2021/08/17 02:41:21;;;;;;;14.87;13.20;;;;;;;22.64;55.74;99873.83;1656564;85;21596;-57
2021/08/17 02:43:48;;;;;;;14.83;13.20;;;;;;;22.63;55.68;99878.17;1664460;85;21586;-58
2021/08/17 02:46:14;;;;;;;16.87;13.03;;;;;;;22.57;55.89;99875.23;1682434;84;21109;-58
2021/08/17 02:48:42;;;;;;;18.48;13.98;;;;;;;22.56;55.93;99878.47;1677829;84;21025;-57
2021/08/17 02:51:09;;;;;;;15.40;13.32;;;;;;;22.58;55.84;99874.92;1679364;84;21587;-59
2021/08/17 02:53:35;;;;;;;19.25;13.98;;;;;;;22.58;55.68;99869.48;1669539;84;21036;-58
2021/08/17 02:56:01;;;;;;;14.25;12.85;;;;;;;22.61;55.60;99870.85;1692234;82;21012;-57
2021/08/17 02:58:27;;;;;;;19.73;13.53;;;;;;;22.62;55.62;99866.51;1722807;82;20978;-57
2021/08/17 03:00:53;;;;;;;14.93;12.98;;;;;;;22.62;55.60;99867.86;1710030;82;21502;-57
2021/08/17 03:03:21;;;;;;;14.75;13.32;;;;;;;22.63;55.48;99866.75;1714475;82;21588;-58
2021/08/17 03:05:47;;;;;;;16.55;12.85;;;;;;;22.64;55.52;99873.83;1713670;82;20991;-57
2021/08/17 03:08:15;;;;;;;14.95;13.48;;;;;;;22.64;55.54;99867.56;1714852;82;21054;-57
2021/08/17 03:10:42;;;;;;;15.98;12.28;;;;;;;22.63;55.66;99867.31;1711943;82;21080;-56
2021/08/17 03:35:03;;;;;;;11.80;10.68;;;;;;;25.24;48.96;99848.78;1697374;82;23013;-58
2021/08/17 03:37:29;;;;;;;12.13;10.98;;;;;;;25.23;48.67;99849.34;1667658;84;20985;-57
2021/08/17 03:39:57;;;;;;;12.50;11.22;;;;;;;25.11;48.96;99856.33;1664166;84;21097;-57
2021/08/17 03:42:29;;;;;;;12.37;11.08;;;;;;;24.98;49.26;99855.99;1672690;84;21044;-58
2021/08/17 03:44:53;;;;;;;15.53;11.38;;;;;;;24.96;49.33;99849.20;1653327;85;21105;-57
2021/08/17 03:47:19;;;;;;;13.40;10.88;;;;;;;24.94;49.35;99847.33;1651761;85;21031;-57
2021/08/17 03:49:46;;;;;;;14.47;11.18;;;;;;;24.98;49.18;99848.37;1649656;85;21088;-56
2021/08/17 03:52:12;;;;;;;14.45;10.95;;;;;;;25.08;48.84;99852.86;1647225;87;21091;-56
2021/08/17 03:54:39;;;;;;;11.20;10.08;;;;;;;25.12;48.81;99853.88;1663928;84;21046;-56
2021/08/17 03:57:06;;;;;;;12.20;11.00;;;;;;;25.17;48.63;99852.44;1709170;82;20967;-57
2021/08/17 03:59:33;;;;;;;11.45;10.35;;;;;;;25.31;48.50;99850.58;1722428;82;21551;-57
2021/08/17 04:02:00;;;;;;;14.03;11.50;;;;;;;25.48;47.85;99848.66;1716510;82;20994;-56
2021/08/17 04:04:26;;;;;;;19.82;11.30;;;;;;;25.63;47.59;99850.30;1723607;82;21101;-56
2021/08/17 04:06:53;;;;;;;14.30;11.65;;;;;;;25.72;47.20;99855.32;1715195;82;21142;-57
2021/08/17 04:09:19;;;;;;;13.80;10.35;;;;;;;25.89;47.58;99847.11;1723422;82;21173;-58
2021/08/17 04:11:45;;;;;;;16.40;11.12;;;;;;;26.07;46.60;99853.59;1711997;82;21113;-58
2021/08/17 04:14:11;;;;;;;11.68;10.43;;;;;;;26.28;46.07;99848.55;1691310;83;21046;-58
2021/08/17 04:16:37;;;;;;;14.93;10.53;;;;;;;26.57;45.64;99843.52;1685867;83;21025;-59
2021/08/17 04:19:04;;;;;;;13.15;10.13;;;;;;;26.86;45.20;99847.84;1688851;83;21186;-58
2021/08/17 04:21:31;;;;;;;10.00;9.00;;;;;;;26.88;44.31;99807.86;1689038;83;21003;-58
2021/08/17 04:23:59;;;;;;;12.05;10.80;;;;;;;27.26;43.82;99849.93;1721883;83;21032;-58
2021/08/17 04:26:26;;;;;;;11.83;9.60;;;;;;;27.46;43.43;99858.16;1719504;81;21093;-58
2021/08/17 04:28:54;;;;;;;14.80;10.93;;;;;;;27.55;43.27;99854.34;1731184;81;21021;-58
2021/08/17 04:31:20;;;;;;;10.28;9.23;;;;;;;27.71;43.08;99851.23;1732423;82;21061;-58
2021/08/17 04:33:46;;;;;;;13.48;9.23;;;;;;;27.71;42.53;99849.30;1721319;81;21100;-57
2021/08/17 04:36:13;;;;;;;10.80;9.58;;;;;;;27.45;42.89;99850.52;1688525;83;21041;-58
2021/08/17 04:38:39;;;;;;;16.10;11.15;;;;;;;27.54;42.93;99852.75;1701103;84;22213;-57
2021/08/17 04:41:07;;;;;;;16.60;9.63;;;;;;;27.64;42.35;99853.03;1695591;83;21052;-59
2021/08/17 04:43:33;;;;;;;11.48;9.85;;;;;;;27.70;42.24;99857.81;1687659;84;21165;-58
2021/08/17 04:45:59;;;;;;;15.70;10.43;;;;;;;27.73;42.32;99861.30;1696733;83;21049;-58
2021/08/17 04:48:25;;;;;;;18.42;9.98;;;;;;;27.69;42.31;99861.66;1685259;83;21065;-59
2021/08/17 04:50:52;;;;;;;16.40;10.43;;;;;;;27.80;42.01;99865.74;1709866;83;21132;-58
2021/08/17 04:53:18;;;;;;;10.78;8.60;;;;;;;27.79;41.67;99864.71;1696684;83;21528;-58
2021/08/17 04:55:44;;;;;;;15.30;10.00;;;;;;;27.60;42.38;99864.94;1698981;83;21117;-56
2021/08/17 04:58:11;;;;;;;10.53;9.13;;;;;;;27.66;42.10;99863.11;1698727;83;21059;-57
2021/08/17 05:00:44;;;;;;;10.25;9.18;;;;;;;27.87;41.90;99872.14;1709476;82;21054;-57
2021/08/17 05:03:11;;;;;;;13.90;10.18;;;;;;;28.11;41.20;99863.58;1709277;82;21584;-56
2021/08/17 05:05:37;;;;;;;10.32;9.33;;;;;;;28.24;40.74;99870.86;1705623;82;21135;-58
2021/08/17 05:08:11;;;;;;;11.05;8.85;;;;;;;28.30;40.93;99864.67;1701287;82;20981;-58
2021/08/17 05:10:38;;;;;;;13.05;8.98;;;;;;;28.41;40.87;99876.95;1694086;83;21010;-58
2021/08/17 05:13:05;;;;;;;12.13;9.78;;;;;;;28.73;40.02;99870.82;1686664;83;21034;-59
2021/08/17 05:15:33;;;;;;;10.72;9.63;;;;;;;28.73;39.62;99878.48;1682300;84;21542;-60
2021/08/17 05:18:02;;;;;;;19.57;9.75;;;;;;;28.56;40.11;99881.20;1678694;84;21111;-58
2021/08/17 05:20:30;;;;;;;10.15;8.35;;;;;;;28.23;40.71;99880.77;1680999;84;21001;-59
2021/08/17 05:22:59;;;;;;;14.40;9.00;;;;;;;28.11;41.20;99878.07;1675371;84;21031;-57
2021/08/17 05:25:25;;;;;;;9.75;8.85;;;;;;;28.15;41.35;99875.51;1681088;84;21154;-56
2021/08/17 05:27:53;;;;;;;8.58;7.83;;;;;;;28.22;41.13;99873.12;1708491;82;21101;-58
2021/08/17 05:30:21;;;;;;;9.90;9.05;;;;;;;28.26;41.16;99878.20;1683868;84;21099;-58
2021/08/17 05:32:51;;;;;;;12.47;7.87;;;;;;;28.30;41.22;99877.00;1675310;84;21200;-59
2021/08/17 05:35:18;;;;;;;8.98;8.18;;;;;;;28.35;41.13;99873.55;1677512;84;21651;-59
2021/08/17 05:37:45;;;;;;;10.93;8.15;;;;;;;28.35;41.21;99869.44;1674974;84;21024;-59
2021/08/17 05:40:12;;;;;;;9.33;8.40;;;;;;;28.44;41.10;99863.95;1675799;84;21165;-58
2021/08/17 05:42:38;;;;;;;13.80;9.13;;;;;;;28.37;41.27;99859.53;1705623;83;21009;-58
2021/08/17 05:45:08;;;;;;;10.32;8.10;;;;;;;28.12;41.68;99867.38;1698001;82;21157;-58
2021/08/17 05:47:34;;;;;;;9.80;8.15;;;;;;;28.01;42.27;99878.91;1705527;83;21008;-58
2021/08/17 05:50:01;;;;;;;9.68;8.08;;;;;;;28.12;42.40;99877.50;1705378;83;20992;-59
2021/08/17 05:52:29;;;;;;;10.95;9.05;;;;;;;28.20;42.25;99871.80;1705813;83;21111;-58
2021/08/17 05:54:56;;;;;;;10.08;9.08;;;;;;;28.31;42.09;99873.13;1699164;83;21040;-60
2021/08/17 05:57:22;;;;;;;13.50;9.28;;;;;;;28.46;41.84;99867.22;1692369;83;21015;-58
2021/08/17 05:59:48;;;;;;;11.60;9.20;;;;;;;28.56;41.51;99877.63;1685108;83;21576;-60
2021/08/17 06:02:15;;;;;;;9.45;8.53;;;;;;;28.44;41.91;99869.44;1685318;83;20993;-60
2021/08/17 06:04:43;;;;;;;10.20;8.50;;;;;;;28.48;42.01;99871.81;1686163;83;21132;-60
2021/08/17 06:07:10;;;;;;;10.93;8.10;;;;;;;28.68;41.83;99873.14;1687687;83;21661;-59
2021/08/17 06:09:37;;;;;;;9.05;7.65;;;;;;;28.98;40.89;99864.29;1679468;83;21056;-58
2021/08/17 06:12:06;;;;;;;12.60;8.53;;;;;;;29.26;40.36;99869.69;1676384;83;21654;-61
2021/08/17 06:14:32;;;;;;;11.25;8.28;;;;;;;29.35;39.79;99869.69;1674894;85;21008;-59
2021/08/17 06:16:58;;;;;;;13.15;8.60;;;;;;;29.16;40.02;99868.67;1670454;85;21046;-59
2021/08/17 06:19:24;;;;;;;10.85;7.58;;;;;;;29.01;40.65;99867.20;1674869;85;21057;-61
2021/08/17 06:21:52;;;;;;;8.85;7.83;;;;;;;29.00;40.11;99863.40;1675396;85;21077;-60
2021/08/17 06:24:19;;;;;;;10.58;7.72;;;;;;;28.87;40.04;99861.86;1731240;82;21073;-59
2021/08/17 06:26:46;;;;;;;10.03;7.75;;;;;;;28.69;40.43;99868.48;1738142;82;21018;-58
2021/08/17 06:29:12;;;;;;;12.13;8.40;;;;;;;28.54;40.69;99858.22;1736845;82;20974;-60
2021/08/17 06:31:40;;;;;;;12.05;7.87;;;;;;;28.51;40.64;99856.64;1738758;82;21054;-59
2021/08/17 06:34:07;;;;;;;12.25;8.55;;;;;;;28.56;40.88;99860.64;1722350;82;21056;-58
2021/08/17 06:36:39;;;;;;;14.63;8.03;;;;;;;28.74;40.78;99869.67;1686270;84;21040;-59
2021/08/17 06:39:07;;;;;;;10.58;7.47;;;;;;;28.79;40.73;99864.05;1688138;84;21005;-59
2021/08/17 06:41:34;;;;;;;8.25;7.37;;;;;;;28.85;40.92;99855.89;1700012;84;21021;-60
2021/08/17 06:44:01;;;;;;;10.45;8.08;;;;;;;29.03;40.15;99856.70;1664749;86;21121;-58
2021/08/17 06:46:28;;;;;;;11.50;7.22;;;;;;;29.25;39.78;99848.88;1698861;84;21029;-59
2021/08/17 06:48:55;;;;;;;12.55;8.03;;;;;;;29.39;39.53;99846.52;1705216;84;20992;-59
2021/08/17 06:51:21;;;;;;;11.40;7.45;;;;;;;29.53;39.15;99853.97;1703101;84;21053;-59
2021/08/17 06:53:47;;;;;;;9.15;7.47;;;;;;;29.54;39.01;99850.67;1705475;84;21567;-59
2021/08/17 06:56:14;;;;;;;13.48;7.60;;;;;;;29.55;39.05;99852.27;1684344;83;21045;-60
2021/08/17 06:58:41;;;;;;;7.25;6.55;;;;;;;29.68;38.94;99852.05;1697568;83;21000;-63
2021/08/17 07:01:07;;;;;;;8.85;7.03;;;;;;;29.84;38.38;99852.36;1704091;83;21027;-52
2021/08/17 07:03:33;;;;;;;14.58;7.22;;;;;;;29.79;38.52;99848.99;1681803;83;21018;-55
2021/08/17 07:05:59;;;;;;;8.70;7.40;;;;;;;29.65;38.78;99845.86;1692455;83;21065;-55
2021/08/17 07:08:27;;;;;;;7.28;6.53;;;;;;;29.54;39.05;99839.69;1739938;81;20948;-56
2021/08/17 07:10:54;;;;;;;11.55;7.28;;;;;;;29.39;39.05;99846.52;1738923;81;21036;-55
2021/08/17 07:13:21;;;;;;;13.15;6.95;;;;;;;29.34;39.27;99845.30;1708121;81;21049;-55
2021/08/17 07:15:49;;;;;;;10.25;7.15;;;;;;;29.35;39.56;99836.75;1706394;82;21015;-56
2021/08/17 07:18:16;;;;;;;9.75;6.97;;;;;;;29.44;40.00;99838.08;1705057;82;21458;-56
2021/08/17 07:20:45;;;;;;;11.75;7.45;;;;;;;29.51;39.48;99832.90;1693732;82;21073;-57
2021/08/17 07:23:13;;;;;;;9.25;6.90;;;;;;;29.42;39.54;99846.67;1677069;83;21079;-56
2021/08/17 07:25:41;;;;;;;9.48;7.08;;;;;;;29.35;39.41;99841.41;1718579;82;21021;-55
2021/08/17 07:28:10;;;;;;;15.70;6.70;;;;;;;29.23;39.50;99841.52;1716657;82;21456;-56
2021/08/17 07:30:37;;;;;;;7.95;7.03;;;;;;;29.17;39.98;99833.22;1709703;82;21567;-56
2021/08/17 07:33:03;;;;;;;7.22;6.42;;;;;;;29.18;40.09;99839.51;1720971;80;20955;-54
2021/08/17 07:35:29;;;;;;;11.63;6.58;;;;;;;29.11;40.00;99833.92;1755710;80;21048;-56
2021/08/17 07:37:56;;;;;;;8.80;5.85;;;;;;;29.11;40.19;99829.02;1771714;79;20969;-56
2021/08/17 07:40:23;;;;;;;11.68;6.65;;;;;;;29.07;39.55;99834.91;1762480;79;20977;-56
2021/08/17 07:42:49;;;;;;;10.18;6.37;;;;;;;29.02;40.05;99840.56;1763416;79;21076;-55
2021/08/17 07:45:16;;;;;;;8.90;6.22;;;;;;;29.01;40.38;99836.19;1767835;80;20996;-55
2021/08/17 07:47:44;;;;;;;7.62;6.62;;;;;;;29.10;40.36;99841.94;1768293;79;21574;-56
2021/08/17 07:50:13;;;;;;;12.25;6.03;;;;;;;29.17;40.06;99849.69;1770483;79;21861;-56
2021/08/17 07:52:42;;;;;;;7.35;6.65;;;;;;;29.23;39.80;99842.89;1770262;81;20989;-56
2021/08/17 07:55:12;;;;;;;8.93;6.55;;;;;;;29.26;39.60;99847.73;1751881;81;21104;-55
2021/08/17 07:57:43;;;;;;;6.28;5.70;;;;;;;29.34;39.56;99844.73;1767335;79;20993;-57
2021/08/17 08:00:13;;;;;;;7.97;6.40;;;;;;;29.44;39.51;99838.91;1763496;79;21045;-56
2021/08/17 08:02:41;;;;;;;7.08;6.37;;;;;;;29.53;39.08;99844.36;1768746;79;21001;-55
2021/08/17 08:05:09;;;;;;;8.40;6.17;;;;;;;29.64;39.03;99844.23;1770760;79;21110;-55
2021/08/17 08:07:36;;;;;;;15.95;6.40;;;;;;;29.75;38.56;99851.59;1771609;81;20961;-55
2021/08/17 08:10:04;;;;;;;13.83;6.87;;;;;;;29.80;38.76;99849.22;1772073;79;21059;-56
2021/08/17 08:12:32;;;;;;;12.10;5.65;;;;;;;29.80;38.63;99844.55;1752735;81;21064;-57
2021/08/17 08:14:59;;;;;;;10.88;6.58;;;;;;;29.82;38.51;99839.53;1741939;82;21033;-56
2021/08/17 08:17:25;;;;;;;8.23;5.60;;;;;;;29.88;38.41;99832.70;1707430;82;21520;-56
2021/08/17 08:19:53;;;;;;;9.38;5.60;;;;;;;29.92;38.23;99828.73;1678393;84;21086;-56
2021/08/17 08:22:19;;;;;;;7.62;5.12;;;;;;;29.98;37.75;99834.27;1707827;82;21514;-56
2021/08/17 08:24:45;;;;;;;10.48;5.58;;;;;;;30.02;37.31;99829.72;1705193;82;21083;-55
2021/08/17 08:27:14;;;;;;;8.90;5.25;;;;;;;30.11;37.61;99833.80;1709278;82;21008;-56
2021/08/17 08:29:40;;;;;;;7.78;5.35;;;;;;;30.23;37.40;99828.95;1675159;84;21072;-56
2021/08/17 08:32:07;;;;;;;8.55;4.90;;;;;;;30.32;37.40;99829.73;1678820;84;21124;-56
2021/08/17 08:34:34;;;;;;;8.90;5.08;;;;;;;30.39;37.10;99837.47;1676374;84;21737;-57
2021/08/17 08:37:02;;;;;;;7.95;5.53;;;;;;;30.36;36.65;99822.43;1709143;82;20989;-54
2021/08/17 08:39:29;;;;;;;10.20;4.90;;;;;;;30.27;36.98;99827.14;1707835;82;21070;-58
2021/08/17 08:41:56;;;;;;;12.47;5.15;;;;;;;30.25;36.96;99811.56;1708349;83;21530;-55
2021/08/17 08:44:22;;;;;;;5.90;5.03;;;;;;;30.26;36.54;99820.85;1703376;82;21130;-56
2021/08/17 08:46:51;;;;;;;7.60;4.92;;;;;;;30.21;36.69;99835.36;1708454;82;21077;-55
2021/08/17 08:49:18;;;;;;;5.40;5.00;;;;;;;30.19;36.72;99826.64;1709146;82;21000;-56
2021/08/17 08:51:46;;;;;;;10.40;5.28;;;;;;;30.24;36.97;99818.21;1719510;82;21549;-55
2021/08/17 08:54:13;;;;;;;10.98;4.67;;;;;;;30.35;36.75;99818.09;1689699;84;21106;-56
2021/08/17 08:56:39;;;;;;;5.75;5.05;;;;;;;30.42;36.19;99828.53;1712555;82;21072;-56
2021/08/17 08:59:06;;;;;;;9.13;4.33;;;;;;;30.49;36.26;99822.52;1709260;82;21079;-58
2021/08/17 09:01:33;;;;;;;9.45;4.75;;;;;;;30.54;36.22;99830.00;1709846;82;21042;-54
2021/08/17 09:03:59;;;;;;;6.85;4.58;;;;;;;30.60;36.07;99821.77;1711009;82;21028;-56
2021/08/17 09:06:30;;;;;;;7.58;4.65;;;;;;;30.68;36.12;99821.47;1709540;82;20989;-56
2021/08/17 09:09:16;;;;;;;13.83;4.35;;;;;;;30.82;35.95;99815.70;1702995;82;20974;-55
2021/08/17 09:11:46;;;;;;;11.37;5.10;;;;;;;30.98;35.69;99818.66;1680436;84;21515;-55
2021/08/17 09:14:21;;;;;;;4.30;3.90;;;;;;;31.10;35.26;99817.88;1716193;82;21760;-56
2021/08/17 09:16:53;;;;;;;8.18;4.72;;;;;;;31.14;35.25;99805.08;1677751;84;21088;-55
2021/08/17 09:19:35;;;;;;;5.72;3.77;;;;;;;31.16;35.40;99807.71;1714980;82;21517;-55
2021/08/17 09:22:16;;;;;;;6.70;4.00;;;;;;;31.24;34.72;99805.42;1704183;82;21092;-56
2021/08/17 09:24:46;;;;;;;6.05;4.35;;;;;;;31.32;34.50;99799.59;1709263;82;21585;-57
2021/08/17 09:27:24;;;;;;;6.55;3.98;;;;;;;31.42;34.24;99808.01;1708144;82;21118;-55
2021/08/17 09:30:03;;;;;;;8.88;4.33;;;;;;;31.49;34.21;99809.63;1708296;83;20996;-56
2021/08/17 09:32:29;;;;;;;10.60;3.50;;;;;;;31.53;33.49;99814.71;1689783;83;21087;-56
2021/08/17 09:34:59;;;;;;;11.60;3.55;;;;;;;31.60;33.34;99800.36;1682523;83;21068;-55
2021/08/17 09:37:33;;;;;;;4.72;3.60;;;;;;;31.57;33.47;99804.61;1681041;84;20992;-56
2021/08/17 09:40:04;;;;;;;5.92;3.90;;;;;;;31.59;33.71;99798.73;1672618;84;21484;-55
2021/08/17 09:42:35;;;;;;;10.63;3.50;;;;;;;31.69;33.49;99796.13;1681281;84;21033;-56
2021/08/17 09:45:16;;;;;;;8.63;3.05;;;;;;;31.74;33.41;99792.56;1693228;84;20996;-57
2021/08/17 09:47:55;;;;;;;12.03;3.60;;;;;;;31.82;32.63;99792.22;1693466;84;20981;-56
2021/08/17 09:50:29;;;;;;;6.45;3.85;;;;;;;31.84;32.55;99791.30;1657126;84;21475;-55
2021/08/17 09:53:15;;;;;;;8.40;3.77;;;;;;;31.92;32.49;99787.61;1667723;84;21658;-54
2021/08/17 09:55:55;;;;;;;7.12;3.08;;;;;;;31.96;32.09;99795.41;1713249;81;20981;-57
2021/08/17 09:58:37;;;;;;;7.08;4.05;;;;;;;31.95;32.32;99794.41;1719138;82;21062;-56
2021/08/17 10:01:08;;;;;;;4.20;3.15;;;;;;;31.97;32.45;99795.66;1716318;80;21092;-56
2021/08/17 10:03:47;;;;;;;6.95;3.22;;;;;;;32.14;32.42;99796.59;1712966;82;21594;-56
2021/08/17 10:06:14;;;;;;;9.55;3.60;;;;;;;32.30;32.10;99792.53;1674180;85;21045;-55
2021/08/17 10:08:42;;;;;;;9.73;3.77;;;;;;;32.38;31.83;99799.30;1723116;83;21102;-57
2021/08/17 10:11:09;;;;;;;4.70;3.70;;;;;;;32.41;31.79;99800.55;1721939;82;21033;-56
2021/08/17 10:13:38;;;;;;;9.48;3.08;;;;;;;32.44;30.79;99797.09;1714800;82;21018;-57
2021/08/17 10:16:06;;;;;;;11.03;3.90;;;;;;;32.43;30.92;99802.96;1718212;82;21511;-55
2021/08/17 10:18:36;;;;;;;5.25;2.72;;;;;;;32.31;31.05;99810.70;1712917;82;21113;-56
2021/08/17 10:21:04;;;;;;;8.20;2.90;;;;;;;32.25;31.27;99812.89;1717256;82;21507;-57
2021/08/17 10:23:32;;;;;;;8.40;3.90;;;;;;;32.12;31.41;99802.45;1706471;82;21484;-56
2021/08/17 10:26:01;;;;;;;7.15;3.50;;;;;;;32.04;31.72;99805.31;1707042;82;21589;-56
2021/08/17 10:28:38;;;;;;;9.85;3.00;;;;;;;32.07;31.85;99817.83;1705895;82;21038;-57
2021/08/17 10:31:18;;;;;;;3.20;3.00;;;;;;;32.16;31.53;99814.97;1705553;82;21117;-55
2021/08/17 10:33:54;;;;;;;5.95;2.70;;;;;;;32.23;31.60;99812.44;1713926;80;21010;-55
2021/08/17 10:36:42;;;;;;;4.67;2.85;;;;;;;32.25;31.30;99805.99;1765510;81;21560;-57
2021/08/17 10:39:23;;;;;;;6.08;3.22;;;;;;;32.26;31.21;99808.97;1768121;79;21021;-58
2021/08/17 10:41:53;;;;;;;8.48;2.70;;;;;;;32.27;31.06;99816.66;1771825;81;21040;-57
2021/08/17 10:44:24;;;;;;;6.92;3.05;;;;;;;32.30;30.69;99815.38;1771473;79;21548;-57
2021/08/17 10:47:01;;;;;;;8.63;3.22;;;;;;;32.38;30.43;99810.33;1771667;79;21032;-57
2021/08/17 10:49:46;;;;;;;7.10;3.12;;;;;;;32.45;30.21;99816.62;1763244;79;21126;-57
2021/08/17 10:52:32;;;;;;;5.78;3.22;;;;;;;32.46;30.30;99815.48;1769097;79;20969;-58
2021/08/17 10:55:24;;;;;;;5.05;2.27;;;;;;;32.43;30.26;99805.72;1766604;79;21037;-58
2021/08/17 10:58:04;;;;;;;8.43;2.77;;;;;;;32.43;29.92;99804.34;1720969;82;21009;-58
2021/08/17 11:00:50;;;;;;;7.78;2.20;;;;;;;32.42;29.96;99795.27;1701194;82;21116;-57
2021/08/17 11:03:38;;;;;;;15.65;3.72;;;;;;;32.45;30.02;99804.20;1711252;82;21108;-56
2021/08/17 11:06:05;;;;;;;8.60;3.17;;;;;;;32.50;30.12;99793.52;1707471;83;21028;-57
2021/08/17 11:08:37;;;;;;;5.55;2.33;;;;;;;32.50;30.14;99794.31;1719300;82;21070;-56
2021/08/17 11:11:18;;;;;;;8.93;2.30;;;;;;;32.52;30.02;99782.36;1716060;82;21081;-57
2021/08/17 11:14:14;;;;;;;5.10;1.80;;;;;;;32.43;30.03;99804.34;1705315;82;21412;-56
2021/08/17 11:16:49;;;;;;;8.75;3.50;;;;;;;32.32;30.25;99798.50;1710194;83;21025;-56
2021/08/17 11:19:16;;;;;;;9.25;1.98;;;;;;;32.30;30.14;99794.70;1714343;82;21007;-55
2021/08/17 11:21:55;;;;;;;5.08;3.10;;;;;;;32.36;29.83;99794.70;1717126;82;21538;-56
2021/08/17 11:24:49;;;;;;;8.08;2.87;;;;;;;32.38;30.05;99788.82;1689923;83;21643;-57
2021/08/17 11:27:30;;;;;;;5.20;2.08;;;;;;;32.43;29.78;99795.48;1682191;83;21020;-55
2021/08/17 11:30:02;;;;;;;5.33;1.77;;;;;;;32.39;29.79;99783.55;1739548;81;21070;-56
2021/08/17 11:32:36;;;;;;;7.22;2.72;;;;;;;32.42;29.90;99787.00;1729682;81;21071;-57
2021/08/17 11:35:23;;;;;;;2.87;2.45;;;;;;;32.44;29.69;99783.31;1734716;81;21061;-56
2021/08/17 11:37:55;;;;;;;7.55;2.83;;;;;;;32.52;29.69;99774.08;1728416;81;21079;-57
2021/08/17 11:40:25;;;;;;;6.17;2.67;;;;;;;32.58;29.58;99770.53;1706907;83;21049;-57
2021/08/17 11:42:56;;;;;;;7.25;2.33;;;;;;;32.66;29.26;99771.53;1728963;82;20978;-57
2021/08/17 11:45:28;;;;;;;11.90;2.20;;;;;;;32.65;29.29;99773.49;1731393;82;21607;-56
2021/08/17 11:48:00;;;;;;;8.93;2.22;;;;;;;32.56;29.45;99765.32;1726252;81;21071;-57
2021/08/17 11:50:28;;;;;;;8.23;2.62;;;;;;;32.58;29.70;99758.11;1722110;81;21675;-57
2021/08/17 11:52:59;;;;;;;8.08;2.50;;;;;;;32.68;29.66;99757.63;1730239;81;21044;-56
2021/08/17 11:55:31;;;;;;;10.13;2.30;;;;;;;32.72;29.54;99747.48;1710743;81;21509;-57